메인 페이지
METAR-TAF:

METAR-TAF

공항 :

부줌부라, 부룬디

위도: 03-19S, 경도: 029-19E, 고도: 782m

현재 날씨관측

예보는 5 시간 37분 전, 17:00시(UTC)에 발표되었습니다.
무풍
온도 25°C
습도 57%
기압 1015 hPa
시정: 9000m
고도 3000ft 상공 구름 조금

METAR: HBBA 131700Z 00000KT 9000 FEW030 25/16 Q1015 NOSIG

시각: 00:37 (22:37 UTC)

예보

예보는 5 시간 37분 전, 17:00시(UTC)에 발표되었습니다.
예보 대상 시간: 13일 18시부터 14일 24시까지 (UTC)
3kt
시정 10km 이상
고도 2500ft 상공 구름 조금
고도 9000ft 상공 구름 보통
전환 중
14일 02시부터 14일 04시까지 (UTC)
4kt
시정: 5000m
고도 3000ft 상공 구름 조금
연무
전환 중
14일 08시부터 14일 10시까지 (UTC)
8kt
시정 10km 이상
고도 2700ft 상공 구름 조금

TAF: HBBA 131700Z 1318/1424 36003KT 9999 FEW025 SCT090 BECMG 1402/1404 36004KT 5000 HZ FEW030 BECMG 1408/1410 18008KT 9999 FEW027

4,000개 이상의 공항 관측 자료 및 예보 (METAR 및 TAF 보고).

지도상에서 검색 가능한 기상관측소가 노란 점과 빨간 점으로 표시되어 있습니다.

기상관측소 명을 보려면 표시 위로 마우스를 이동하세요.

날씨 관측과 예보를 보려면 클릭하세요.

지도 변경 : 확대하려면 엑스 표시가 있는 녹색 버튼, 축소하려면 빼기 표시가 있는 녹색 버튼, 다음 페이지의 지도를 보려면 녹색 화살표를 클릭하세요.


METAR-TAF: